sensor_id;sensor_type;location;lat;lon;timestamp;temperature;humidity
75164;HTU21D;63746;45.402;37.922;2023-05-10T00:01:31;10.99;70.90
75164;HTU21D;63746;45.402;37.922;2023-05-10T00:03:56;11.00;70.91
75164;HTU21D;63746;45.402;37.922;2023-05-10T00:06:22;10.99;70.92
75164;HTU21D;63746;45.402;37.922;2023-05-10T00:08:48;11.00;70.87
75164;HTU21D;63746;45.402;37.922;2023-05-10T00:11:14;10.99;70.88
75164;HTU21D;63746;45.402;37.922;2023-05-10T00:13:40;10.98;70.90
75164;HTU21D;63746;45.402;37.922;2023-05-10T00:16:06;10.99;70.86
75164;HTU21D;63746;45.402;37.922;2023-05-10T00:18:32;10.98;70.86
75164;HTU21D;63746;45.402;37.922;2023-05-10T00:20:58;10.99;70.86
75164;HTU21D;63746;45.402;37.922;2023-05-10T00:23:24;10.99;70.89
75164;HTU21D;63746;45.402;37.922;2023-05-10T00:25:50;10.99;70.84
75164;HTU21D;63746;45.402;37.922;2023-05-10T00:28:15;10.98;70.85
75164;HTU21D;63746;45.402;37.922;2023-05-10T00:30:41;10.99;70.83
75164;HTU21D;63746;45.402;37.922;2023-05-10T00:33:07;10.98;70.81
75164;HTU21D;63746;45.402;37.922;2023-05-10T00:35:33;10.97;70.82
75164;HTU21D;63746;45.402;37.922;2023-05-10T00:37:59;10.98;70.79
75164;HTU21D;63746;45.402;37.922;2023-05-10T00:40:25;10.97;70.77
75164;HTU21D;63746;45.402;37.922;2023-05-10T00:42:56;10.96;70.81
75164;HTU21D;63746;45.402;37.922;2023-05-10T00:45:22;10.96;70.84
75164;HTU21D;63746;45.402;37.922;2023-05-10T00:47:50;10.96;70.83
75164;HTU21D;63746;45.402;37.922;2023-05-10T00:50:17;10.96;70.82
75164;HTU21D;63746;45.402;37.922;2023-05-10T00:52:43;10.95;70.81
75164;HTU21D;63746;45.402;37.922;2023-05-10T00:55:11;10.93;70.79
75164;HTU21D;63746;45.402;37.922;2023-05-10T00:57:38;10.92;70.77
75164;HTU21D;63746;45.402;37.922;2023-05-10T01:00:04;10.93;70.80
75164;HTU21D;63746;45.402;37.922;2023-05-10T01:02:30;10.89;70.77
75164;HTU21D;63746;45.402;37.922;2023-05-10T01:04:56;10.87;70.77
75164;HTU21D;63746;45.402;37.922;2023-05-10T01:07:22;10.86;70.80
75164;HTU21D;63746;45.402;37.922;2023-05-10T01:09:48;10.85;70.87
75164;HTU21D;63746;45.402;37.922;2023-05-10T01:12:15;10.85;70.89
75164;HTU21D;63746;45.402;37.922;2023-05-10T01:14:41;10.84;70.87
75164;HTU21D;63746;45.402;37.922;2023-05-10T01:17:07;10.83;70.91
75164;HTU21D;63746;45.402;37.922;2023-05-10T01:19:35;10.83;70.90
75164;HTU21D;63746;45.402;37.922;2023-05-10T01:31:02;10.81;71.19
75164;HTU21D;63746;45.402;37.922;2023-05-10T01:33:27;10.79;71.06
75164;HTU21D;63746;45.402;37.922;2023-05-10T01:36:48;10.79;71.09
75164;HTU21D;63746;45.402;37.922;2023-05-10T01:39:17;10.79;71.11
75164;HTU21D;63746;45.402;37.922;2023-05-10T01:44:37;10.78;71.22
75164;HTU21D;63746;45.402;37.922;2023-05-10T01:50:15;10.75;71.06
75164;HTU21D;63746;45.402;37.922;2023-05-10T01:52:45;10.75;71.04
75164;HTU21D;63746;45.402;37.922;2023-05-10T01:55:15;10.74;71.03
75164;HTU21D;63746;45.402;37.922;2023-05-10T01:57:44;10.74;71.00
75164;HTU21D;63746;45.402;37.922;2023-05-10T02:00:13;10.73;71.00
75164;HTU21D;63746;45.402;37.922;2023-05-10T02:02:45;10.71;71.00
75164;HTU21D;63746;45.402;37.922;2023-05-10T02:05:13;10.72;70.98
75164;HTU21D;63746;45.402;37.922;2023-05-10T02:07:39;10.73;70.96
75164;HTU21D;63746;45.402;37.922;2023-05-10T02:10:07;10.71;70.97
75164;HTU21D;63746;45.402;37.922;2023-05-10T02:12:36;10.71;70.93
75164;HTU21D;63746;45.402;37.922;2023-05-10T02:15:05;10.70;70.95
75164;HTU21D;63746;45.402;37.922;2023-05-10T02:17:32;10.70;70.97
75164;HTU21D;63746;45.402;37.922;2023-05-10T02:20:01;10.69;70.93
75164;HTU21D;63746;45.402;37.922;2023-05-10T02:22:27;10.69;70.93
75164;HTU21D;63746;45.402;37.922;2023-05-10T02:24:55;10.69;70.89
75164;HTU21D;63746;45.402;37.922;2023-05-10T02:27:24;10.67;70.89
75164;HTU21D;63746;45.402;37.922;2023-05-10T02:29:52;10.66;70.88
75164;HTU21D;63746;45.402;37.922;2023-05-10T02:32:19;10.65;70.86
75164;HTU21D;63746;45.402;37.922;2023-05-10T02:34:46;10.63;70.87
75164;HTU21D;63746;45.402;37.922;2023-05-10T02:37:19;10.63;70.88
75164;HTU21D;63746;45.402;37.922;2023-05-10T02:39:49;10.62;70.90
75164;HTU21D;63746;45.402;37.922;2023-05-10T02:42:18;10.59;70.93
75164;HTU21D;63746;45.402;37.922;2023-05-10T02:44:49;10.59;70.94
75164;HTU21D;63746;45.402;37.922;2023-05-10T02:47:16;10.58;70.92
75164;HTU21D;63746;45.402;37.922;2023-05-10T02:49:43;10.57;70.91
75164;HTU21D;63746;45.402;37.922;2023-05-10T02:52:09;10.57;70.94
75164;HTU21D;63746;45.402;37.922;2023-05-10T02:55:00;10.59;71.29
75164;HTU21D;63746;45.402;37.922;2023-05-10T02:57:29;10.60;71.08
75164;HTU21D;63746;45.402;37.922;2023-05-10T02:59:57;10.60;71.13
75164;HTU21D;63746;45.402;37.922;2023-05-10T03:02:23;10.62;71.06
75164;HTU21D;63746;45.402;37.922;2023-05-10T03:04:49;10.62;71.01
75164;HTU21D;63746;45.402;37.922;2023-05-10T03:07:15;10.63;71.06
75164;HTU21D;63746;45.402;37.922;2023-05-10T03:09:47;10.63;71.05
75164;HTU21D;63746;45.402;37.922;2023-05-10T03:15:11;10.62;71.07
75164;HTU21D;63746;45.402;37.922;2023-05-10T03:20:29;10.62;71.15
75164;HTU21D;63746;45.402;37.922;2023-05-10T03:23:05;10.60;71.07
75164;HTU21D;63746;45.402;37.922;2023-05-10T03:25:33;10.59;71.03
75164;HTU21D;63746;45.402;37.922;2023-05-10T03:28:03;10.60;71.12
75164;HTU21D;63746;45.402;37.922;2023-05-10T03:30:31;10.63;71.12
75164;HTU21D;63746;45.402;37.922;2023-05-10T03:32:58;10.64;71.14
75164;HTU21D;63746;45.402;37.922;2023-05-10T03:35:29;10.66;71.13
75164;HTU21D;63746;45.402;37.922;2023-05-10T03:37:55;10.66;71.08
75164;HTU21D;63746;45.402;37.922;2023-05-10T03:40:21;10.65;71.08
75164;HTU21D;63746;45.402;37.922;2023-05-10T03:42:48;10.66;71.09
75164;HTU21D;63746;45.402;37.922;2023-05-10T03:45:15;10.67;71.09
75164;HTU21D;63746;45.402;37.922;2023-05-10T03:47:41;10.68;71.06
75164;HTU21D;63746;45.402;37.922;2023-05-10T03:50:07;10.69;71.06
75164;HTU21D;63746;45.402;37.922;2023-05-10T03:52:33;10.71;71.06
75164;HTU21D;63746;45.402;37.922;2023-05-10T03:54:59;10.71;71.09
75164;HTU21D;63746;45.402;37.922;2023-05-10T03:57:25;10.73;71.07
75164;HTU21D;63746;45.402;37.922;2023-05-10T03:59:51;10.74;71.04
75164;HTU21D;63746;45.402;37.922;2023-05-10T04:02:17;10.75;71.03
75164;HTU21D;63746;45.402;37.922;2023-05-10T04:04:42;10.77;71.08
75164;HTU21D;63746;45.402;37.922;2023-05-10T04:07:08;10.78;71.08
75164;HTU21D;63746;45.402;37.922;2023-05-10T04:09:35;10.80;71.06
75164;HTU21D;63746;45.402;37.922;2023-05-10T04:12:01;10.81;71.07
75164;HTU21D;63746;45.402;37.922;2023-05-10T04:14:27;10.83;71.08
75164;HTU21D;63746;45.402;37.922;2023-05-10T04:16:53;10.85;71.07
75164;HTU21D;63746;45.402;37.922;2023-05-10T04:19:19;10.85;71.07
75164;HTU21D;63746;45.402;37.922;2023-05-10T04:21:45;10.86;71.06
75164;HTU21D;63746;45.402;37.922;2023-05-10T04:24:11;10.88;71.04
75164;HTU21D;63746;45.402;37.922;2023-05-10T04:26:37;10.88;71.08
75164;HTU21D;63746;45.402;37.922;2023-05-10T04:29:03;10.89;71.01
75164;HTU21D;63746;45.402;37.922;2023-05-10T04:31:29;10.89;71.03
75164;HTU21D;63746;45.402;37.922;2023-05-10T04:33:55;10.90;71.06
75164;HTU21D;63746;45.402;37.922;2023-05-10T04:36:21;10.93;71.06
75164;HTU21D;63746;45.402;37.922;2023-05-10T04:38:47;10.96;71.11
75164;HTU21D;63746;45.402;37.922;2023-05-10T04:41:13;10.99;71.27
75164;HTU21D;63746;45.402;37.922;2023-05-10T04:43:38;11.04;71.35
75164;HTU21D;63746;45.402;37.922;2023-05-10T04:46:05;11.12;71.37
75164;HTU21D;63746;45.402;37.922;2023-05-10T04:48:31;11.17;71.34
75164;HTU21D;63746;45.402;37.922;2023-05-10T04:50:57;11.22;71.32
75164;HTU21D;63746;45.402;37.922;2023-05-10T04:53:23;11.28;71.41
75164;HTU21D;63746;45.402;37.922;2023-05-10T04:55:49;11.37;71.48
75164;HTU21D;63746;45.402;37.922;2023-05-10T04:58:15;11.45;71.46
75164;HTU21D;63746;45.402;37.922;2023-05-10T05:00:41;11.48;71.35
75164;HTU21D;63746;45.402;37.922;2023-05-10T05:03:07;11.52;71.20
75164;HTU21D;63746;45.402;37.922;2023-05-10T05:05:33;11.57;71.16
75164;HTU21D;63746;45.402;37.922;2023-05-10T05:07:59;11.58;71.09
75164;HTU21D;63746;45.402;37.922;2023-05-10T05:10:26;11.61;71.08
75164;HTU21D;63746;45.402;37.922;2023-05-10T05:12:51;11.64;71.08
75164;HTU21D;63746;45.402;37.922;2023-05-10T05:15:17;11.70;71.19
75164;HTU21D;63746;45.402;37.922;2023-05-10T05:18:16;11.76;71.17
75164;HTU21D;63746;45.402;37.922;2023-05-10T05:20:42;11.82;71.19
75164;HTU21D;63746;45.402;37.922;2023-05-10T05:23:08;11.88;71.13
75164;HTU21D;63746;45.402;37.922;2023-05-10T05:25:34;11.92;71.06
75164;HTU21D;63746;45.402;37.922;2023-05-10T05:28:01;11.96;71.02
75164;HTU21D;63746;45.402;37.922;2023-05-10T05:30:27;11.99;70.96
75164;HTU21D;63746;45.402;37.922;2023-05-10T05:32:53;12.01;70.91
75164;HTU21D;63746;45.402;37.922;2023-05-10T05:35:19;12.03;70.84
75164;HTU21D;63746;45.402;37.922;2023-05-10T05:37:45;12.04;70.84
75164;HTU21D;63746;45.402;37.922;2023-05-10T05:40:14;12.06;70.79
75164;HTU21D;63746;45.402;37.922;2023-05-10T05:42:39;12.07;70.82
75164;HTU21D;63746;45.402;37.922;2023-05-10T05:45:06;12.13;70.95
75164;HTU21D;63746;45.402;37.922;2023-05-10T05:47:32;12.19;70.93
75164;HTU21D;63746;45.402;37.922;2023-05-10T05:49:58;12.22;70.90
75164;HTU21D;63746;45.402;37.922;2023-05-10T05:52:24;12.27;70.82
75164;HTU21D;63746;45.402;37.922;2023-05-10T05:54:49;12.28;70.74
75164;HTU21D;63746;45.402;37.922;2023-05-10T05:57:15;12.29;70.69
75164;HTU21D;63746;45.402;37.922;2023-05-10T05:59:41;12.30;70.75
75164;HTU21D;63746;45.402;37.922;2023-05-10T06:02:09;12.33;70.66
75164;HTU21D;63746;45.402;37.922;2023-05-10T06:04:35;12.32;70.58
75164;HTU21D;63746;45.402;37.922;2023-05-10T06:07:01;12.32;70.63
75164;HTU21D;63746;45.402;37.922;2023-05-10T06:09:27;12.34;70.68
75164;HTU21D;63746;45.402;37.922;2023-05-10T06:11:53;12.36;70.74
75164;HTU21D;63746;45.402;37.922;2023-05-10T06:14:22;12.41;70.77
75164;HTU21D;63746;45.402;37.922;2023-05-10T06:16:48;12.46;70.82
75164;HTU21D;63746;45.402;37.922;2023-05-10T06:19:14;12.51;70.86
75164;HTU21D;63746;45.402;37.922;2023-05-10T06:21:40;12.59;70.81
75164;HTU21D;63746;45.402;37.922;2023-05-10T06:24:06;12.66;70.99
75164;HTU21D;63746;45.402;37.922;2023-05-10T06:26:32;12.79;71.17
75164;HTU21D;63746;45.402;37.922;2023-05-10T06:28:58;12.95;71.19
75164;HTU21D;63746;45.402;37.922;2023-05-10T06:31:24;13.07;70.95
75164;HTU21D;63746;45.402;37.922;2023-05-10T06:33:50;13.17;70.84
75164;HTU21D;63746;45.402;37.922;2023-05-10T06:36:16;13.23;70.62
75164;HTU21D;63746;45.402;37.922;2023-05-10T06:38:42;13.25;70.39
75164;HTU21D;63746;45.402;37.922;2023-05-10T06:41:08;13.24;70.26
75164;HTU21D;63746;45.402;37.922;2023-05-10T06:43:34;13.25;70.25
75164;HTU21D;63746;45.402;37.922;2023-05-10T06:46:00;13.27;70.25
75164;HTU21D;63746;45.402;37.922;2023-05-10T06:48:26;13.30;70.18
75164;HTU21D;63746;45.402;37.922;2023-05-10T06:50:52;13.27;70.10
75164;HTU21D;63746;45.402;37.922;2023-05-10T06:53:18;13.26;70.04
75164;HTU21D;63746;45.402;37.922;2023-05-10T06:55:43;13.25;70.04
75164;HTU21D;63746;45.402;37.922;2023-05-10T06:58:09;13.22;70.05
75164;HTU21D;63746;45.402;37.922;2023-05-10T07:00:35;13.24;70.10
75164;HTU21D;63746;45.402;37.922;2023-05-10T07:03:06;13.27;70.18
75164;HTU21D;63746;45.402;37.922;2023-05-10T07:05:31;13.32;70.31
75164;HTU21D;63746;45.402;37.922;2023-05-10T07:07:57;13.43;70.55
75164;HTU21D;63746;45.402;37.922;2023-05-10T07:10:23;13.53;70.49
75164;HTU21D;63746;45.402;37.922;2023-05-10T07:12:49;13.62;70.47
75164;HTU21D;63746;45.402;37.922;2023-05-10T07:15:15;13.70;70.36
75164;HTU21D;63746;45.402;37.922;2023-05-10T07:17:41;13.74;70.16
75164;HTU21D;63746;45.402;37.922;2023-05-10T07:20:08;13.76;70.00
75164;HTU21D;63746;45.402;37.922;2023-05-10T07:22:33;13.73;69.82
75164;HTU21D;63746;45.402;37.922;2023-05-10T07:24:59;13.68;69.77
75164;HTU21D;63746;45.402;37.922;2023-05-10T07:27:25;13.67;69.78
75164;HTU21D;63746;45.402;37.922;2023-05-10T07:29:51;13.67;69.81
75164;HTU21D;63746;45.402;37.922;2023-05-10T07:32:17;13.68;69.92
75164;HTU21D;63746;45.402;37.922;2023-05-10T07:34:43;13.69;69.88
75164;HTU21D;63746;45.402;37.922;2023-05-10T07:37:09;13.70;69.84
75164;HTU21D;63746;45.402;37.922;2023-05-10T07:39:35;13.71;69.78
75164;HTU21D;63746;45.402;37.922;2023-05-10T07:42:01;13.71;69.79
75164;HTU21D;63746;45.402;37.922;2023-05-10T07:44:27;13.70;69.79
75164;HTU21D;63746;45.402;37.922;2023-05-10T07:46:52;13.71;69.80
75164;HTU21D;63746;45.402;37.922;2023-05-10T07:49:18;13.75;69.87
75164;HTU21D;63746;45.402;37.922;2023-05-10T07:51:44;13.81;70.07
75164;HTU21D;63746;45.402;37.922;2023-05-10T07:54:10;13.89;70.00
75164;HTU21D;63746;45.402;37.922;2023-05-10T07:56:36;13.96;70.07
75164;HTU21D;63746;45.402;37.922;2023-05-10T07:59:03;14.05;70.07
75164;HTU21D;63746;45.402;37.922;2023-05-10T08:01:31;14.10;69.90
75164;HTU21D;63746;45.402;37.922;2023-05-10T08:04:00;14.12;69.74
75164;HTU21D;63746;45.402;37.922;2023-05-10T08:06:26;14.13;69.55
75164;HTU21D;63746;45.402;37.922;2023-05-10T08:08:53;14.10;69.44
75164;HTU21D;63746;45.402;37.922;2023-05-10T08:11:20;14.04;69.32
75164;HTU21D;63746;45.402;37.922;2023-05-10T08:13:46;13.96;69.26
75164;HTU21D;63746;45.402;37.922;2023-05-10T08:16:12;13.91;69.27
75164;HTU21D;63746;45.402;37.922;2023-05-10T08:18:39;13.84;69.26
75164;HTU21D;63746;45.402;37.922;2023-05-10T08:21:05;13.79;69.33
75164;HTU21D;63746;45.402;37.922;2023-05-10T08:23:31;13.77;69.41
75164;HTU21D;63746;45.402;37.922;2023-05-10T08:25:59;13.77;69.50
75164;HTU21D;63746;45.402;37.922;2023-05-10T08:28:25;13.77;69.54
75164;HTU21D;63746;45.402;37.922;2023-05-10T08:30:51;13.77;69.52
75164;HTU21D;63746;45.402;37.922;2023-05-10T08:33:18;13.76;69.49
75164;HTU21D;63746;45.402;37.922;2023-05-10T08:35:44;13.76;69.55
75164;HTU21D;63746;45.402;37.922;2023-05-10T08:38:10;13.77;69.52
75164;HTU21D;63746;45.402;37.922;2023-05-10T08:40:41;13.77;69.48
75164;HTU21D;63746;45.402;37.922;2023-05-10T08:43:09;13.75;69.49
75164;HTU21D;63746;45.402;37.922;2023-05-10T08:45:38;13.73;69.43
75164;HTU21D;63746;45.402;37.922;2023-05-10T08:48:09;13.71;69.36
75164;HTU21D;63746;45.402;37.922;2023-05-10T08:50:36;13.68;69.39
75164;HTU21D;63746;45.402;37.922;2023-05-10T08:53:05;13.64;69.42
75164;HTU21D;63746;45.402;37.922;2023-05-10T08:55:32;13.67;69.54
75164;HTU21D;63746;45.402;37.922;2023-05-10T08:58:00;13.70;69.68
75164;HTU21D;63746;45.402;37.922;2023-05-10T09:00:26;13.81;69.98
75164;HTU21D;63746;45.402;37.922;2023-05-10T09:02:54;13.95;70.13
75164;HTU21D;63746;45.402;37.922;2023-05-10T09:05:20;14.07;70.00
75164;HTU21D;63746;45.402;37.922;2023-05-10T09:07:46;14.15;69.80
75164;HTU21D;63746;45.402;37.922;2023-05-10T09:10:13;14.24;69.74
75164;HTU21D;63746;45.402;37.922;2023-05-10T09:12:40;14.26;69.56
75164;HTU21D;63746;45.402;37.922;2023-05-10T09:15:07;14.27;69.41
75164;HTU21D;63746;45.402;37.922;2023-05-10T09:17:35;14.29;69.30
75164;HTU21D;63746;45.402;37.922;2023-05-10T09:20:05;14.29;69.28
75164;HTU21D;63746;45.402;37.922;2023-05-10T09:22:31;14.32;69.34
75164;HTU21D;63746;45.402;37.922;2023-05-10T09:27:35;14.59;69.96
75164;HTU21D;63746;45.402;37.922;2023-05-10T09:30:02;14.80;69.83
75164;HTU21D;63746;45.402;37.922;2023-05-10T09:32:42;14.95;69.51
75164;HTU21D;63746;45.402;37.922;2023-05-10T09:35:16;15.13;69.55
75164;HTU21D;63746;45.402;37.922;2023-05-10T09:37:47;15.32;69.50
75164;HTU21D;63746;45.402;37.922;2023-05-10T09:40:16;15.49;69.34
75164;HTU21D;63746;45.402;37.922;2023-05-10T09:43:11;15.63;69.16
75164;HTU21D;63746;45.402;37.922;2023-05-10T09:45:36;15.74;68.84
75164;HTU21D;63746;45.402;37.922;2023-05-10T09:48:03;15.75;68.65
75164;HTU21D;63746;45.402;37.922;2023-05-10T09:50:29;15.73;68.60
75164;HTU21D;63746;45.402;37.922;2023-05-10T09:52:57;15.80;68.87
75164;HTU21D;63746;45.402;37.922;2023-05-10T09:55:26;15.89;68.74
75164;HTU21D;63746;45.402;37.922;2023-05-10T09:58:03;15.88;68.43
75164;HTU21D;63746;45.402;37.922;2023-05-10T10:00:38;15.84;68.19
75164;HTU21D;63746;45.402;37.922;2023-05-10T10:03:04;15.77;67.39
75164;HTU21D;63746;45.402;37.922;2023-05-10T10:05:32;15.73;68.29
75164;HTU21D;63746;45.402;37.922;2023-05-10T10:07:59;15.69;68.33
75164;HTU21D;63746;45.402;37.922;2023-05-10T10:10:26;15.63;68.42
75164;HTU21D;63746;45.402;37.922;2023-05-10T10:12:53;15.60;68.50
75164;HTU21D;63746;45.402;37.922;2023-05-10T10:15:20;15.62;68.68
75164;HTU21D;63746;45.402;37.922;2023-05-10T10:17:48;15.74;68.98
75164;HTU21D;63746;45.402;37.922;2023-05-10T10:20:15;15.87;68.94
75164;HTU21D;63746;45.402;37.922;2023-05-10T10:22:41;15.93;68.72
75164;HTU21D;63746;45.402;37.922;2023-05-10T10:25:07;15.96;68.50
75164;HTU21D;63746;45.402;37.922;2023-05-10T10:30:43;15.89;67.85
75164;HTU21D;63746;45.402;37.922;2023-05-10T10:33:36;15.83;67.83
75164;HTU21D;63746;45.402;37.922;2023-05-10T10:36:04;15.80;68.33
75164;HTU21D;63746;45.402;37.922;2023-05-10T10:38:57;15.86;68.12
75164;HTU21D;63746;45.402;37.922;2023-05-10T10:41:32;15.92;68.46
75164;HTU21D;63746;45.402;37.922;2023-05-10T10:47:05;15.85;67.87
75164;HTU21D;63746;45.402;37.922;2023-05-10T10:49:44;15.86;68.48
75164;HTU21D;63746;45.402;37.922;2023-05-10T10:52:21;15.88;68.36
75164;HTU21D;63746;45.402;37.922;2023-05-10T10:54:53;15.87;68.41
75164;HTU21D;63746;45.402;37.922;2023-05-10T10:57:22;15.89;68.26
75164;HTU21D;63746;45.402;37.922;2023-05-10T10:59:48;15.83;68.12
75164;HTU21D;63746;45.402;37.922;2023-05-10T11:07:53;15.69;68.19
75164;HTU21D;63746;45.402;37.922;2023-05-10T11:10:20;15.61;68.19
75164;HTU21D;63746;45.402;37.922;2023-05-10T11:13:02;15.59;68.29
75164;HTU21D;63746;45.402;37.922;2023-05-10T11:15:33;15.65;68.42
75164;HTU21D;63746;45.402;37.922;2023-05-10T11:17:59;15.65;68.38
75164;HTU21D;63746;45.402;37.922;2023-05-10T11:20:29;15.63;68.33
75164;HTU21D;63746;45.402;37.922;2023-05-10T11:23:14;15.61;68.03
75164;HTU21D;63746;45.402;37.922;2023-05-10T11:25:45;15.59;68.28
75164;HTU21D;63746;45.402;37.922;2023-05-10T11:28:16;15.57;68.20
75164;HTU21D;63746;45.402;37.922;2023-05-10T11:30:44;15.55;68.26
75164;HTU21D;63746;45.402;37.922;2023-05-10T11:33:15;15.52;68.12
75164;HTU21D;63746;45.402;37.922;2023-05-10T11:35:42;15.47;68.16
75164;HTU21D;63746;45.402;37.922;2023-05-10T11:38:12;15.42;68.13
75164;HTU21D;63746;45.402;37.922;2023-05-10T11:40:39;15.37;68.16
75164;HTU21D;63746;45.402;37.922;2023-05-10T11:43:05;15.37;68.31
75164;HTU21D;63746;45.402;37.922;2023-05-10T11:45:35;15.47;68.62
75164;HTU21D;63746;45.402;37.922;2023-05-10T11:48:01;15.62;68.80
75164;HTU21D;63746;45.402;37.922;2023-05-10T11:50:28;15.80;68.84
75164;HTU21D;63746;45.402;37.922;2023-05-10T11:52:55;15.96;68.77
75164;HTU21D;63746;45.402;37.922;2023-05-10T11:55:22;16.12;68.62
75164;HTU21D;63746;45.402;37.922;2023-05-10T11:57:54;16.26;68.40
75164;HTU21D;63746;45.402;37.922;2023-05-10T12:00:20;16.37;68.25
75164;HTU21D;63746;45.402;37.922;2023-05-10T12:02:46;16.46;68.22
75164;HTU21D;63746;45.402;37.922;2023-05-10T12:05:13;16.57;68.14
75164;HTU21D;63746;45.402;37.922;2023-05-10T12:07:39;16.69;68.00
75164;HTU21D;63746;45.402;37.922;2023-05-10T12:10:11;16.73;67.81
75164;HTU21D;63746;45.402;37.922;2023-05-10T12:12:43;16.78;67.78
75164;HTU21D;63746;45.402;37.922;2023-05-10T12:15:24;16.80;67.19
75164;HTU21D;63746;45.402;37.922;2023-05-10T12:17:50;16.84;67.75
75164;HTU21D;63746;45.402;37.922;2023-05-10T12:20:21;16.85;67.55
75164;HTU21D;63746;45.402;37.922;2023-05-10T12:22:50;16.77;67.42
75164;HTU21D;63746;45.402;37.922;2023-05-10T12:25:22;16.77;67.47
75164;HTU21D;63746;45.402;37.922;2023-05-10T12:30:19;16.85;67.55
75164;HTU21D;63746;45.402;37.922;2023-05-10T12:32:46;16.87;67.65
75164;HTU21D;63746;45.402;37.922;2023-05-10T12:35:12;16.89;67.62
75164;HTU21D;63746;45.402;37.922;2023-05-10T12:37:38;16.86;67.48
75164;HTU21D;63746;45.402;37.922;2023-05-10T12:40:07;16.84;65.85
75164;HTU21D;63746;45.402;37.922;2023-05-10T12:42:34;16.81;67.46
75164;HTU21D;63746;45.402;37.922;2023-05-10T12:45:02;16.78;67.43
75164;HTU21D;63746;45.402;37.922;2023-05-10T12:47:28;16.73;67.42
75164;HTU21D;63746;45.402;37.922;2023-05-10T12:49:54;16.66;67.29
75164;HTU21D;63746;45.402;37.922;2023-05-10T12:52:20;16.54;67.23
75164;HTU21D;63746;45.402;37.922;2023-05-10T12:54:46;16.45;67.23
75164;HTU21D;63746;45.402;37.922;2023-05-10T12:57:13;16.37;67.27
75164;HTU21D;63746;45.402;37.922;2023-05-10T12:59:39;16.31;67.41
75164;HTU21D;63746;45.402;37.922;2023-05-10T13:02:06;16.28;67.46
75164;HTU21D;63746;45.402;37.922;2023-05-10T13:04:32;16.25;67.58
75164;HTU21D;63746;45.402;37.922;2023-05-10T13:07:01;16.26;66.30
75164;HTU21D;63746;45.402;37.922;2023-05-10T13:09:27;16.22;67.50
75164;HTU21D;63746;45.402;37.922;2023-05-10T13:11:55;16.18;65.74
75164;HTU21D;63746;45.402;37.922;2023-05-10T13:14:21;16.12;67.36
75164;HTU21D;63746;45.402;37.922;2023-05-10T13:16:47;16.05;67.54
75164;HTU21D;63746;45.402;37.922;2023-05-10T13:19:14;16.00;67.39
75164;HTU21D;63746;45.402;37.922;2023-05-10T13:21:40;15.91;67.44
75164;HTU21D;63746;45.402;37.922;2023-05-10T13:24:10;15.86;67.53
75164;HTU21D;63746;45.402;37.922;2023-05-10T13:26:36;15.85;67.64
75164;HTU21D;63746;45.402;37.922;2023-05-10T13:29:03;15.85;67.68
75164;HTU21D;63746;45.402;37.922;2023-05-10T13:31:29;15.84;67.59
75164;HTU21D;63746;45.402;37.922;2023-05-10T13:33:55;15.84;67.66
75164;HTU21D;63746;45.402;37.922;2023-05-10T13:36:21;15.83;67.60
75164;HTU21D;63746;45.402;37.922;2023-05-10T13:38:48;15.81;67.65
75164;HTU21D;63746;45.402;37.922;2023-05-10T13:41:14;15.82;67.65
75164;HTU21D;63746;45.402;37.922;2023-05-10T13:43:40;15.81;67.57
75164;HTU21D;63746;45.402;37.922;2023-05-10T13:46:06;15.76;67.55
75164;HTU21D;63746;45.402;37.922;2023-05-10T13:48:32;15.76;67.63
75164;HTU21D;63746;45.402;37.922;2023-05-10T13:50:58;15.76;67.56
75164;HTU21D;63746;45.402;37.922;2023-05-10T13:53:24;15.73;67.49
75164;HTU21D;63746;45.402;37.922;2023-05-10T13:55:50;15.71;67.46
75164;HTU21D;63746;45.402;37.922;2023-05-10T13:58:16;15.70;67.52
75164;HTU21D;63746;45.402;37.922;2023-05-10T14:00:42;15.65;67.39
75164;HTU21D;63746;45.402;37.922;2023-05-10T14:03:08;15.59;67.47
75164;HTU21D;63746;45.402;37.922;2023-05-10T14:05:36;15.58;67.52
75164;HTU21D;63746;45.402;37.922;2023-05-10T14:08:02;15.56;67.54
75164;HTU21D;63746;45.402;37.922;2023-05-10T14:10:28;15.55;67.55
75164;HTU21D;63746;45.402;37.922;2023-05-10T14:12:54;15.53;67.51
75164;HTU21D;63746;45.402;37.922;2023-05-10T14:15:20;15.52;67.49
75164;HTU21D;63746;45.402;37.922;2023-05-10T14:17:46;15.48;67.43
75164;HTU21D;63746;45.402;37.922;2023-05-10T14:20:12;15.44;67.43
75164;HTU21D;63746;45.402;37.922;2023-05-10T14:22:37;15.38;67.26
75164;HTU21D;63746;45.402;37.922;2023-05-10T14:25:04;15.30;67.24
75164;HTU21D;63746;45.402;37.922;2023-05-10T14:27:30;15.23;67.34
75164;HTU21D;63746;45.402;37.922;2023-05-10T14:29:56;15.18;67.39
75164;HTU21D;63746;45.402;37.922;2023-05-10T14:32:22;15.14;67.34
75164;HTU21D;63746;45.402;37.922;2023-05-10T14:34:47;15.10;67.36
75164;HTU21D;63746;45.402;37.922;2023-05-10T14:37:14;15.06;67.36
75164;HTU21D;63746;45.402;37.922;2023-05-10T14:39:40;15.00;67.37
75164;HTU21D;63746;45.402;37.922;2023-05-10T14:42:08;14.98;67.45
75164;HTU21D;63746;45.402;37.922;2023-05-10T14:44:34;14.95;67.52
75164;HTU21D;63746;45.402;37.922;2023-05-10T14:47:00;15.00;67.88
75164;HTU21D;63746;45.402;37.922;2023-05-10T14:49:26;15.06;67.68
75164;HTU21D;63746;45.402;37.922;2023-05-10T14:51:52;15.07;67.65
75164;HTU21D;63746;45.402;37.922;2023-05-10T14:54:18;15.06;67.46
75164;HTU21D;63746;45.402;37.922;2023-05-10T14:56:44;15.00;67.35
75164;HTU21D;63746;45.402;37.922;2023-05-10T14:59:10;14.95;67.27
75164;HTU21D;63746;45.402;37.922;2023-05-10T15:01:36;14.86;67.25
75164;HTU21D;63746;45.402;37.922;2023-05-10T15:04:03;14.81;67.23
75164;HTU21D;63746;45.402;37.922;2023-05-10T15:06:34;14.74;67.22
75164;HTU21D;63746;45.402;37.922;2023-05-10T15:09:00;14.70;67.28
75164;HTU21D;63746;45.402;37.922;2023-05-10T15:11:26;14.64;67.29
75164;HTU21D;63746;45.402;37.922;2023-05-10T15:13:53;14.58;67.32
75164;HTU21D;63746;45.402;37.922;2023-05-10T15:16:19;14.53;67.29
75164;HTU21D;63746;45.402;37.922;2023-05-10T15:18:45;14.45;67.33
75164;HTU21D;63746;45.402;37.922;2023-05-10T15:21:11;14.41;67.40
75164;HTU21D;63746;45.402;37.922;2023-05-10T15:23:38;14.38;67.43
75164;HTU21D;63746;45.402;37.922;2023-05-10T15:26:03;14.35;67.43
75164;HTU21D;63746;45.402;37.922;2023-05-10T15:28:30;14.30;67.40
75164;HTU21D;63746;45.402;37.922;2023-05-10T15:30:56;14.28;67.40
75164;HTU21D;63746;45.402;37.922;2023-05-10T15:33:22;14.24;67.42
75164;HTU21D;63746;45.402;37.922;2023-05-10T15:35:48;14.22;67.43
75164;HTU21D;63746;45.402;37.922;2023-05-10T15:38:14;14.19;67.43
75164;HTU21D;63746;45.402;37.922;2023-05-10T15:40:40;14.17;67.59
75164;HTU21D;63746;45.402;37.922;2023-05-10T15:43:06;14.19;67.57